Kingston, Indiana
Current Conditions -  °F | °C
As of 2:53 PM on Friday 28 Nov 2014 (Local Time) from KGEZ Reporting Station
Clear Clear  
Wind Chill: 23°   Ceiling: Unl
Heat Index: 33°   Visibility: 10mi
Dew Point: 21°   Wind: 16mph
Humidity: 61%   Direction: 160°SSE
Pressure: 30.18"   Gusts: NA
Location:  39.3206°N, 85.4768°W
Report Text: KGEZ 281953Z AUTO 16014KT 10SM CLR 01/M06 A3018 RMK AO2 SLP230 T00061061
Loading
Personal Weather Stations






























Interactive Weather Map New forecast layout! Learn more

10-Day Weather Forecast

Advertisements
Track Severe Weather on mobile